Time;durP1;ratioP1;P1;durP2;ratioP2;P2;SDS_P1;SDS_P2;PMS_P1;PMS_P2;Temp;Humidity;BMP_temperature;BMP_pressure;BME280_temperature;BME280_humidity;BME280_pressure;Samples;Min_cycle;Max_cycle;Signal;HPM_P1;HPM_P2
2023/12/14 00:01:16;;;;;;;0.50;0.50;;;6.20;99.90;;;;;;5031926;28;20272;-57
2023/12/14 00:03:44;;;;;;;0.30;0.30;;;6.20;99.90;;;;;;5032331;28;20418;-57
2023/12/14 00:06:13;;;;;;;0.30;0.30;;;6.20;99.90;;;;;;5032370;28;20190;-57
2023/12/14 00:08:39;;;;;;;0.85;0.50;;;6.20;99.90;;;;;;5032246;28;20196;-57
2023/12/14 00:11:06;;;;;;;0.40;0.40;;;6.20;99.90;;;;;;5031783;28;20162;-57
2023/12/14 00:13:32;;;;;;;0.40;0.40;;;6.20;99.90;;;;;;5032045;28;20186;-56
2023/12/14 00:15:58;;;;;;;0.57;0.57;;;6.20;99.90;;;;;;5031988;28;20261;-57
2023/12/14 00:18:23;;;;;;;0.40;0.40;;;6.30;99.90;;;;;;5032056;28;20409;-57
2023/12/14 00:20:49;;;;;;;0.67;0.40;;;6.30;99.90;;;;;;5031728;28;20254;-57
2023/12/14 00:23:15;;;;;;;0.50;0.50;;;6.40;99.90;;;;;;5032020;28;20195;-57
2023/12/14 00:25:40;;;;;;;0.40;0.40;;;6.40;99.90;;;;;;5032039;28;20305;-57
2023/12/14 00:28:06;;;;;;;0.30;0.30;;;6.40;99.90;;;;;;5031991;28;20567;-57
2023/12/14 00:30:31;;;;;;;0.30;0.30;;;6.30;99.90;;;;;;5031478;28;20190;-57
2023/12/14 00:32:57;;;;;;;0.30;0.30;;;6.20;99.90;;;;;;5031714;28;20284;-57
2023/12/14 00:35:23;;;;;;;0.40;0.40;;;6.20;99.90;;;;;;5031908;28;20679;-57
2023/12/14 00:37:48;;;;;;;0.30;0.30;;;6.10;99.90;;;;;;5031830;28;20713;-57
2023/12/14 00:40:14;;;;;;;0.50;0.50;;;6.10;99.90;;;;;;5031628;28;20229;-58
2023/12/14 00:42:40;;;;;;;0.30;0.30;;;6.10;99.90;;;;;;5031530;28;20197;-57
2023/12/14 00:45:06;;;;;;;0.63;0.63;;;6.10;99.90;;;;;;5031640;28;20599;-57
2023/12/14 00:47:31;;;;;;;0.50;0.50;;;6.10;99.90;;;;;;5031792;28;20173;-57
2023/12/14 00:49:57;;;;;;;0.40;0.40;;;6.20;99.90;;;;;;5031553;28;20182;-57
2023/12/14 00:52:22;;;;;;;0.40;0.40;;;6.20;99.90;;;;;;5031383;28;20194;-57
2023/12/14 00:54:48;;;;;;;0.30;0.30;;;6.20;99.90;;;;;;5031613;28;20224;-57
2023/12/14 00:57:14;;;;;;;0.70;0.70;;;6.20;99.90;;;;;;5031642;28;20239;-57
2023/12/14 00:59:40;;;;;;;0.40;0.40;;;6.20;99.90;;;;;;5031610;28;20604;-57
2023/12/14 01:02:06;;;;;;;0.30;0.30;;;6.20;99.90;;;;;;5031497;28;20211;-57
2023/12/14 01:04:32;;;;;;;0.30;0.30;;;6.20;99.90;;;;;;5031527;28;20647;-57
2023/12/14 01:06:57;;;;;;;0.40;0.40;;;6.30;99.90;;;;;;5031574;28;20173;-57
2023/12/14 01:09:23;;;;;;;0.87;0.70;;;6.30;99.90;;;;;;5031516;28;20466;-58
2023/12/14 01:11:48;;;;;;;0.50;0.50;;;6.30;99.90;;;;;;5031182;28;20243;-57
2023/12/14 01:14:14;;;;;;;0.30;0.30;;;6.30;99.90;;;;;;5031154;28;20711;-55
2023/12/14 01:16:40;;;;;;;0.50;0.50;;;6.30;99.90;;;;;;5011930;28;20182;-57
2023/12/14 01:19:05;;;;;;;0.30;0.30;;;6.30;99.90;;;;;;5011702;28;20198;-57
2023/12/14 01:21:32;;;;;;;0.30;0.30;;;6.30;99.90;;;;;;5011532;28;20595;-57
2023/12/14 01:23:58;;;;;;;0.32;0.32;;;6.30;99.90;;;;;;5011661;28;20208;-57
2023/12/14 01:26:23;;;;;;;0.30;0.30;;;6.30;99.90;;;;;;5011649;28;20631;-58
2023/12/14 01:28:49;;;;;;;0.40;0.40;;;6.30;99.90;;;;;;5011514;28;20719;-57
2023/12/14 01:31:14;;;;;;;0.40;0.40;;;6.20;99.90;;;;;;5011164;28;20230;-57
2023/12/14 01:33:40;;;;;;;0.30;0.30;;;6.20;99.90;;;;;;5011539;28;20358;-55
2023/12/14 01:36:06;;;;;;;0.40;0.40;;;6.20;99.90;;;;;;5011519;28;20231;-57
2023/12/14 01:38:31;;;;;;;1.33;1.23;;;6.40;99.90;;;;;;5011483;28;20181;-57
2023/12/14 01:40:59;;;;;;;0.40;0.40;;;6.50;99.90;;;;;;5011158;28;20491;-55
2023/12/14 01:43:24;;;;;;;0.45;0.40;;;6.40;99.90;;;;;;5011471;28;20173;-57
2023/12/14 01:45:50;;;;;;;0.40;0.40;;;6.40;99.90;;;;;;5011568;28;20181;-57
2023/12/14 01:48:15;;;;;;;0.30;0.30;;;6.30;99.90;;;;;;5012625;28;20174;-57
2023/12/14 01:50:41;;;;;;;0.40;0.40;;;6.30;99.90;;;;;;5030492;28;20182;-57
2023/12/14 01:53:07;;;;;;;0.40;0.40;;;6.20;99.90;;;;;;5033300;28;20208;-56
2023/12/14 01:55:32;;;;;;;0.30;0.30;;;6.10;99.90;;;;;;5031489;28;20456;-57
2023/12/14 01:57:59;;;;;;;0.70;0.70;;;6.20;99.90;;;;;;5034138;28;20693;-57
2023/12/14 02:00:46;;;;;;;0.82;0.82;;;6.20;99.90;;;;;;5033887;28;20162;-57
2023/12/14 02:03:11;;;;;;;1.00;0.50;;;6.20;99.90;;;;;;5033713;28;20580;-56
2023/12/14 02:05:37;;;;;;;0.40;0.40;;;6.20;99.90;;;;;;5034056;28;20176;-57
2023/12/14 02:08:03;;;;;;;0.40;0.40;;;6.30;99.90;;;;;;5034107;28;20397;-57
2023/12/14 02:10:28;;;;;;;0.37;0.37;;;6.30;99.90;;;;;;5033585;28;20181;-57
2023/12/14 02:12:54;;;;;;;0.40;0.40;;;6.40;99.90;;;;;;5034047;28;20197;-57
2023/12/14 02:15:20;;;;;;;0.30;0.30;;;6.30;99.90;;;;;;5033816;28;20226;-57
2023/12/14 02:17:46;;;;;;;0.47;0.47;;;6.30;99.90;;;;;;5033833;28;20167;-57
2023/12/14 02:20:12;;;;;;;0.30;0.30;;;6.20;99.90;;;;;;5033578;28;20173;-57
2023/12/14 02:22:52;;;;;;;1.23;0.77;;;6.10;99.90;;;;;;5033517;28;20190;-57
2023/12/14 02:25:19;;;;;;;0.50;0.50;;;6.10;99.90;;;;;;5031712;28;20415;-57
2023/12/14 02:27:45;;;;;;;0.60;0.60;;;6.20;99.90;;;;;;5033312;28;20673;-57
2023/12/14 02:30:12;;;;;;;1.30;0.87;;;6.20;99.90;;;;;;5033456;28;20177;-57
2023/12/14 02:32:38;;;;;;;0.30;0.30;;;6.20;99.90;;;;;;5033244;28;20294;-57
2023/12/14 02:35:04;;;;;;;1.25;1.02;;;6.20;99.90;;;;;;5033373;28;20261;-57
2023/12/14 02:37:30;;;;;;;0.40;0.40;;;6.20;99.90;;;;;;5033406;28;20630;-56
2023/12/14 02:39:56;;;;;;;0.80;0.53;;;6.30;99.90;;;;;;5033351;28;20171;-57
2023/12/14 02:42:21;;;;;;;0.40;0.40;;;6.30;99.90;;;;;;5033063;28;20200;-57
2023/12/14 02:44:47;;;;;;;0.50;0.50;;;6.20;99.90;;;;;;5033371;28;20195;-57
2023/12/14 02:47:13;;;;;;;0.73;0.60;;;6.10;99.90;;;;;;5033309;28;20189;-57
2023/12/14 02:49:38;;;;;;;0.40;0.40;;;6.20;99.90;;;;;;5033160;28;20186;-57
2023/12/14 02:52:04;;;;;;;0.40;0.40;;;6.30;99.90;;;;;;5032567;28;20201;-57
2023/12/14 02:54:30;;;;;;;0.30;0.30;;;6.30;99.90;;;;;;5032999;28;20584;-57
2023/12/14 02:56:55;;;;;;;0.40;0.40;;;6.20;99.90;;;;;;5033132;28;20818;-57
2023/12/14 02:59:21;;;;;;;0.30;0.30;;;6.30;99.90;;;;;;5032940;28;20252;-57
2023/12/14 03:01:46;;;;;;;0.90;0.90;;;6.20;99.90;;;;;;5032461;28;20297;-57
2023/12/14 03:04:12;;;;;;;0.50;0.50;;;6.20;99.90;;;;;;5031937;28;20181;-57
2023/12/14 03:06:38;;;;;;;0.30;0.30;;;6.20;99.90;;;;;;5032842;28;20175;-57
2023/12/14 03:09:03;;;;;;;0.30;0.30;;;6.20;99.90;;;;;;5032971;28;20173;-58
2023/12/14 03:11:29;;;;;;;0.37;0.37;;;6.20;99.90;;;;;;5032474;28;20202;-58
2023/12/14 03:13:54;;;;;;;0.40;0.40;;;6.20;99.90;;;;;;5033052;28;20201;-58
2023/12/14 03:16:20;;;;;;;0.30;0.30;;;6.20;99.90;;;;;;5033262;28;20181;-57
2023/12/14 03:18:46;;;;;;;0.30;0.30;;;6.20;99.90;;;;;;5033202;28;20715;-58
2023/12/14 03:21:12;;;;;;;0.50;0.50;;;6.20;99.90;;;;;;5032684;28;20211;-57
2023/12/14 03:23:37;;;;;;;0.30;0.30;;;6.20;99.90;;;;;;5033024;28;20174;-57
2023/12/14 03:26:03;;;;;;;0.30;0.30;;;6.30;99.90;;;;;;5032996;28;20185;-58
2023/12/14 03:28:29;;;;;;;0.30;0.30;;;6.30;99.90;;;;;;5032969;28;20177;-57
2023/12/14 03:30:54;;;;;;;0.50;0.40;;;6.30;99.90;;;;;;5032547;28;20178;-57
2023/12/14 03:33:22;;;;;;;0.30;0.30;;;6.20;99.90;;;;;;5067325;22;20290;-60
2023/12/14 03:35:47;;;;;;;0.70;0.70;;;6.20;99.90;;;;;;5053528;28;20566;-60
2023/12/14 03:38:13;;;;;;;0.30;0.30;;;6.20;99.90;;;;;;5052788;28;20281;-60
2023/12/14 03:40:39;;;;;;;0.40;0.40;;;6.10;99.90;;;;;;5052227;28;20233;-60
2023/12/14 03:43:05;;;;;;;0.40;0.40;;;6.10;99.90;;;;;;5067394;28;20667;-60
2023/12/14 03:45:31;;;;;;;0.30;0.30;;;6.00;99.90;;;;;;5073885;28;20256;-60
2023/12/14 03:47:56;;;;;;;0.30;0.30;;;6.00;99.90;;;;;;5073824;28;20427;-59
2023/12/14 03:50:22;;;;;;;0.60;0.60;;;6.00;99.90;;;;;;5073521;28;20512;-60
2023/12/14 03:52:48;;;;;;;0.30;0.30;;;6.00;99.90;;;;;;5073995;28;20210;-60
2023/12/14 03:55:16;;;;;;;0.30;0.30;;;6.00;99.90;;;;;;5073366;28;20897;-60
2023/12/14 03:57:42;;;;;;;0.30;0.30;;;6.00;99.90;;;;;;5073989;28;20197;-60
2023/12/14 04:00:12;;;;;;;0.30;0.30;;;6.00;99.90;;;;;;5074697;28;20177;-60
2023/12/14 04:02:38;;;;;;;0.35;0.35;;;6.00;99.90;;;;;;5074108;28;20686;-60
2023/12/14 04:05:06;;;;;;;0.30;0.30;;;6.00;99.90;;;;;;5074435;28;20178;-60
2023/12/14 04:07:31;;;;;;;0.30;0.30;;;6.00;99.90;;;;;;5074373;28;20178;-60
2023/12/14 04:09:57;;;;;;;0.30;0.30;;;5.90;99.90;;;;;;5074334;28;20187;-60
2023/12/14 04:12:22;;;;;;;0.30;0.30;;;5.90;99.90;;;;;;5074087;28;20208;-60
2023/12/14 04:14:48;;;;;;;0.30;0.30;;;5.90;99.90;;;;;;5073736;28;20211;-60
2023/12/14 04:17:13;;;;;;;0.40;0.40;;;5.90;99.90;;;;;;5074420;28;20206;-60
2023/12/14 04:19:39;;;;;;;0.30;0.30;;;6.00;99.90;;;;;;5074359;28;20166;-60
2023/12/14 04:22:05;;;;;;;0.40;0.40;;;6.00;99.90;;;;;;5073869;28;20188;-60
2023/12/14 04:24:31;;;;;;;0.30;0.30;;;6.00;99.90;;;;;;5073335;28;20676;-60
2023/12/14 04:26:57;;;;;;;0.30;0.30;;;6.00;99.90;;;;;;5073425;28;20200;-60
2023/12/14 04:29:22;;;;;;;0.40;0.40;;;6.00;99.90;;;;;;5073211;28;20181;-60
2023/12/14 04:31:48;;;;;;;0.30;0.30;;;6.10;99.90;;;;;;5073143;28;20183;-60
2023/12/14 04:34:15;;;;;;;0.30;0.30;;;6.10;99.90;;;;;;5073782;28;20626;-60
2023/12/14 04:36:42;;;;;;;0.30;0.30;;;6.20;99.90;;;;;;5074032;28;20606;-60
2023/12/14 04:39:08;;;;;;;0.30;0.30;;;6.20;99.90;;;;;;5074062;28;20645;-60
2023/12/14 04:41:33;;;;;;;0.30;0.30;;;6.30;99.90;;;;;;5073374;28;20178;-59
2023/12/14 04:43:59;;;;;;;0.37;0.37;;;6.30;99.90;;;;;;5073806;28;20176;-60
2023/12/14 04:46:24;;;;;;;0.30;0.30;;;6.30;99.90;;;;;;5073552;28;20189;-60
2023/12/14 04:48:50;;;;;;;0.40;0.40;;;6.10;99.90;;;;;;5073952;28;20186;-59
2023/12/14 04:51:16;;;;;;;0.87;0.60;;;6.10;99.90;;;;;;5073462;28;20624;-59
2023/12/14 04:53:41;;;;;;;0.40;0.40;;;6.10;99.90;;;;;;5073781;28;20240;-60
2023/12/14 04:56:13;;;;;;;0.40;0.40;;;6.10;99.90;;;;;;5073595;28;20259;-60
2023/12/14 04:58:39;;;;;;;0.40;0.40;;;6.20;99.90;;;;;;5073517;28;20170;-60
2023/12/14 05:01:06;;;;;;;0.30;0.30;;;6.10;99.90;;;;;;5073311;28;20207;-60
2023/12/14 05:03:32;;;;;;;0.40;0.40;;;6.10;99.90;;;;;;5073740;28;20201;-60
2023/12/14 05:05:58;;;;;;;0.47;0.40;;;6.10;99.90;;;;;;5073907;28;20179;-60
2023/12/14 05:08:24;;;;;;;0.40;0.40;;;6.00;99.90;;;;;;5073798;28;20223;-59
2023/12/14 05:10:50;;;;;;;0.73;0.67;;;6.10;99.90;;;;;;5073670;28;20178;-60
2023/12/14 05:13:15;;;;;;;0.43;0.43;;;6.10;99.90;;;;;;5073445;28;20440;-60
2023/12/14 05:15:41;;;;;;;0.40;0.40;;;6.10;99.90;;;;;;5073512;28;20193;-60
2023/12/14 05:18:07;;;;;;;0.50;0.50;;;6.10;99.90;;;;;;5073534;28;20535;-60
2023/12/14 05:20:34;;;;;;;0.30;0.30;;;6.00;99.90;;;;;;5073138;28;20180;-60
2023/12/14 05:22:59;;;;;;;0.30;0.30;;;6.10;99.90;;;;;;5072944;28;20200;-60
2023/12/14 05:25:25;;;;;;;0.93;0.93;;;6.10;99.90;;;;;;5072173;28;20258;-60
2023/12/14 05:27:51;;;;;;;0.30;0.30;;;6.20;99.90;;;;;;5074920;28;20192;-60
2023/12/14 05:30:17;;;;;;;0.30;0.30;;;6.20;99.90;;;;;;5076591;28;20271;-60
2023/12/14 05:32:43;;;;;;;0.30;0.30;;;6.20;99.90;;;;;;5076617;28;20238;-60
2023/12/14 05:35:09;;;;;;;0.30;0.30;;;6.30;99.90;;;;;;5076509;28;20212;-60
2023/12/14 05:37:35;;;;;;;0.30;0.30;;;6.20;99.90;;;;;;5076921;28;20183;-60
2023/12/14 05:40:02;;;;;;;0.40;0.40;;;6.20;99.90;;;;;;5076644;28;20494;-60
2023/12/14 05:42:28;;;;;;;0.50;0.40;;;6.20;99.90;;;;;;5076689;28;20619;-60
2023/12/14 05:44:54;;;;;;;1.07;0.60;;;6.20;99.90;;;;;;5076493;28;20212;-60
2023/12/14 05:47:19;;;;;;;0.40;0.40;;;6.30;99.90;;;;;;5076851;28;20173;-60
2023/12/14 05:49:45;;;;;;;0.50;0.50;;;6.20;99.90;;;;;;5077104;28;20411;-60
2023/12/14 05:52:11;;;;;;;0.90;0.90;;;6.20;99.90;;;;;;5076373;28;20663;-60
2023/12/14 05:54:37;;;;;;;1.40;1.23;;;6.20;99.90;;;;;;5076640;28;20735;-60
2023/12/14 05:57:03;;;;;;;1.15;1.15;;;6.20;99.90;;;;;;5077059;28;20407;-60
2023/12/14 05:59:29;;;;;;;0.93;0.93;;;6.20;99.90;;;;;;5076696;28;20196;-60
2023/12/14 06:01:58;;;;;;;1.80;0.83;;;6.20;99.90;;;;;;5075752;28;20255;-59
2023/12/14 06:04:25;;;;;;;0.50;0.50;;;6.20;99.90;;;;;;5076049;28;20166;-60
2023/12/14 06:06:51;;;;;;;0.32;0.32;;;6.00;99.90;;;;;;5076524;28;20552;-59
2023/12/14 06:09:19;;;;;;;1.13;1.10;;;5.90;99.90;;;;;;5076426;28;20180;-60
2023/12/14 06:11:45;;;;;;;0.68;0.68;;;6.00;99.90;;;;;;5075725;28;20205;-59
2023/12/14 06:14:10;;;;;;;0.47;0.47;;;6.00;99.90;;;;;;5076658;28;20666;-60
2023/12/14 06:16:36;;;;;;;0.70;0.70;;;6.10;99.90;;;;;;5075875;28;20177;-60
2023/12/14 06:19:01;;;;;;;0.40;0.40;;;6.10;99.90;;;;;;5076683;28;20207;-60
2023/12/14 06:21:28;;;;;;;0.43;0.43;;;6.20;99.90;;;;;;5076479;28;20169;-60
2023/12/14 06:23:58;;;;;;;0.30;0.30;;;6.20;99.90;;;;;;5075488;28;20308;-60
2023/12/14 06:26:24;;;;;;;0.30;0.30;;;6.30;99.90;;;;;;5075165;28;20184;-60
2023/12/14 06:28:50;;;;;;;0.37;0.37;;;6.20;99.90;;;;;;5075000;28;20169;-60
2023/12/14 06:31:17;;;;;;;1.80;0.50;;;6.10;99.90;;;;;;5074632;28;20257;-60
2023/12/14 06:33:43;;;;;;;0.40;0.40;;;6.10;99.90;;;;;;5075237;28;20701;-60
2023/12/14 06:36:09;;;;;;;0.50;0.50;;;6.20;99.90;;;;;;5075521;28;20172;-60
2023/12/14 06:38:34;;;;;;;0.30;0.30;;;6.20;99.90;;;;;;5075518;28;20266;-60
2023/12/14 06:41:03;;;;;;;0.50;0.50;;;6.20;99.90;;;;;;5075479;28;20400;-60
2023/12/14 06:43:29;;;;;;;0.50;0.50;;;6.20;99.90;;;;;;5075959;28;20201;-60
2023/12/14 06:45:54;;;;;;;0.40;0.40;;;6.10;99.90;;;;;;5075609;28;20177;-60
2023/12/14 06:48:20;;;;;;;0.30;0.30;;;6.00;99.90;;;;;;5075560;28;20197;-60
2023/12/14 06:50:46;;;;;;;0.30;0.30;;;6.10;99.90;;;;;;5075423;28;20611;-60
2023/12/14 06:53:11;;;;;;;0.40;0.40;;;6.10;99.90;;;;;;5075603;28;20958;-60
2023/12/14 06:55:37;;;;;;;0.40;0.40;;;6.00;99.90;;;;;;5075391;28;20250;-60
2023/12/14 06:58:03;;;;;;;0.30;0.30;;;6.00;99.90;;;;;;5075430;28;20171;-60
2023/12/14 07:00:29;;;;;;;1.20;0.70;;;5.90;99.90;;;;;;5075121;28;20173;-60
2023/12/14 07:02:55;;;;;;;0.98;0.98;;;6.00;99.90;;;;;;5074933;28;20192;-60
2023/12/14 07:05:20;;;;;;;0.53;0.53;;;6.10;99.90;;;;;;5074880;28;20552;-60
2023/12/14 07:07:46;;;;;;;0.50;0.50;;;6.20;99.90;;;;;;5075056;28;20414;-60
2023/12/14 07:10:12;;;;;;;0.50;0.50;;;6.20;99.90;;;;;;5074658;28;20173;-60
2023/12/14 07:12:37;;;;;;;0.40;0.40;;;6.10;99.90;;;;;;5074831;28;20208;-60
2023/12/14 07:15:04;;;;;;;0.40;0.40;;;6.10;99.90;;;;;;5075022;28;20202;-60
2023/12/14 07:17:29;;;;;;;0.40;0.40;;;6.20;99.90;;;;;;5075062;28;20171;-60
2023/12/14 07:19:55;;;;;;;0.47;0.47;;;6.20;99.90;;;;;;5074659;28;20188;-60
2023/12/14 07:22:20;;;;;;;0.40;0.40;;;6.20;99.90;;;;;;5074687;28;20732;-58
2023/12/14 07:24:46;;;;;;;0.30;0.30;;;6.20;99.90;;;;;;5075423;28;20172;-57
2023/12/14 07:27:11;;;;;;;0.33;0.33;;;6.10;99.90;;;;;;5075331;28;20175;-58
2023/12/14 07:29:37;;;;;;;0.30;0.30;;;6.10;99.90;;;;;;5075017;28;20175;-57
2023/12/14 07:32:03;;;;;;;0.30;0.30;;;6.10;99.90;;;;;;5074187;28;20204;-58
2023/12/14 07:34:29;;;;;;;0.30;0.30;;;6.10;99.90;;;;;;5074270;28;20219;-57
2023/12/14 07:36:54;;;;;;;0.30;0.30;;;6.10;99.90;;;;;;5074803;28;20180;-57
2023/12/14 07:39:21;;;;;;;0.40;0.40;;;6.20;99.90;;;;;;5074733;28;20183;-58
2023/12/14 07:41:47;;;;;;;0.30;0.30;;;6.20;99.90;;;;;;5024312;28;20186;-58
2023/12/14 07:44:13;;;;;;;0.73;0.70;;;6.20;99.90;;;;;;5074664;28;20626;-59
2023/12/14 07:46:42;;;;;;;0.43;0.43;;;6.30;99.90;;;;;;5094736;28;20172;-59
2023/12/14 07:49:08;;;;;;;0.40;0.40;;;6.30;99.90;;;;;;5061196;28;20175;-58
2023/12/14 07:51:35;;;;;;;0.30;0.30;;;6.20;99.90;;;;;;5074332;28;20264;-58
2023/12/14 07:54:03;;;;;;;0.60;0.60;;;6.30;99.90;;;;;;5073308;28;20457;-58
2023/12/14 07:56:29;;;;;;;0.40;0.40;;;6.40;99.90;;;;;;5079936;28;20189;-58
2023/12/14 07:58:54;;;;;;;0.70;0.70;;;6.40;99.90;;;;;;5095317;28;20169;-57
2023/12/14 08:01:20;;;;;;;0.47;0.47;;;6.40;99.90;;;;;;5089256;28;20204;-58
2023/12/14 08:03:46;;;;;;;0.87;0.77;;;6.40;99.90;;;;;;5074620;28;20207;-58
2023/12/14 08:06:12;;;;;;;0.30;0.30;;;6.30;99.90;;;;;;5073967;28;20662;-57
2023/12/14 08:08:37;;;;;;;0.95;0.70;;;6.40;99.90;;;;;;5075984;28;20461;-58
2023/12/14 08:11:05;;;;;;;1.33;1.23;;;6.40;99.90;;;;;;5076484;28;20169;-58
2023/12/14 08:13:30;;;;;;;0.88;0.88;;;6.50;99.90;;;;;;5074344;28;20245;-57
2023/12/14 08:15:58;;;;;;;1.10;1.10;;;6.60;99.90;;;;;;5077036;28;20240;-57
2023/12/14 08:18:24;;;;;;;2.55;1.10;;;6.60;99.90;;;;;;5077202;28;20166;-58
2023/12/14 08:20:55;;;;;;;0.80;0.80;;;6.60;99.90;;;;;;5077173;28;20252;-58
2023/12/14 08:23:20;;;;;;;0.50;0.50;;;6.50;99.90;;;;;;5071157;28;20205;-58
2023/12/14 08:25:50;;;;;;;0.93;0.93;;;6.50;99.90;;;;;;5066103;28;20184;-58
2023/12/14 08:28:17;;;;;;;0.50;0.40;;;6.60;99.90;;;;;;5074554;28;20186;-58
2023/12/14 08:30:44;;;;;;;0.90;0.90;;;6.60;99.90;;;;;;5074581;28;20184;-58
2023/12/14 08:33:10;;;;;;;1.00;1.00;;;6.70;99.90;;;;;;5075591;28;20721;-58
2023/12/14 08:35:36;;;;;;;0.70;0.70;;;6.60;99.90;;;;;;5075224;28;20200;-58
2023/12/14 08:38:01;;;;;;;0.52;0.52;;;6.60;99.90;;;;;;5075857;28;20230;-58
2023/12/14 08:40:27;;;;;;;0.40;0.40;;;6.60;99.90;;;;;;5075052;28;20176;-58
2023/12/14 08:42:53;;;;;;;0.50;0.50;;;6.50;99.90;;;;;;5058839;28;20184;-58
2023/12/14 08:45:18;;;;;;;0.30;0.30;;;6.50;99.90;;;;;;5077556;28;20199;-58
2023/12/14 08:47:44;;;;;;;0.40;0.40;;;6.50;99.90;;;;;;5077759;28;20177;-58
2023/12/14 08:50:09;;;;;;;0.30;0.30;;;6.70;99.90;;;;;;5078037;28;20179;-58
2023/12/14 08:52:35;;;;;;;0.40;0.40;;;6.60;99.90;;;;;;5078094;28;20247;-58
2023/12/14 08:55:02;;;;;;;0.30;0.30;;;6.60;99.90;;;;;;5076434;28;20669;-58
2023/12/14 08:57:27;;;;;;;0.98;0.77;;;6.50;99.90;;;;;;5075827;28;20633;-58
2023/12/14 08:59:53;;;;;;;0.80;0.80;;;6.40;99.90;;;;;;5074392;28;20272;-57
2023/12/14 09:02:18;;;;;;;0.57;0.57;;;6.60;99.90;;;;;;5076630;28;20206;-58
2023/12/14 09:04:44;;;;;;;0.30;0.30;;;6.60;99.90;;;;;;5079953;28;20171;-58
2023/12/14 09:07:10;;;;;;;0.67;0.67;;;6.60;99.90;;;;;;5079623;28;20172;-58
2023/12/14 09:09:35;;;;;;;0.40;0.40;;;6.60;99.90;;;;;;5079209;28;20240;-58
2023/12/14 09:12:01;;;;;;;0.37;0.37;;;6.60;99.90;;;;;;5078353;28;20208;-58
2023/12/14 09:14:26;;;;;;;0.60;0.60;;;6.60;99.90;;;;;;5079870;28;20231;-58
2023/12/14 09:16:52;;;;;;;0.30;0.30;;;6.80;99.90;;;;;;5079920;28;20575;-58
2023/12/14 09:19:18;;;;;;;0.50;0.50;;;6.80;99.90;;;;;;5079810;28;20172;-56
2023/12/14 09:21:44;;;;;;;0.40;0.40;;;6.90;99.90;;;;;;5061102;28;20173;-58
2023/12/14 09:24:12;;;;;;;0.50;0.50;;;6.90;99.90;;;;;;5080717;28;20202;-57
2023/12/14 09:26:37;;;;;;;0.63;0.63;;;7.00;99.90;;;;;;5079481;28;20215;-61
2023/12/14 09:29:03;;;;;;;2.50;0.80;;;7.10;99.90;;;;;;5078060;28;20173;-59
2023/12/14 09:31:29;;;;;;;0.40;0.40;;;7.10;99.90;;;;;;5077035;28;20177;-58
2023/12/14 09:33:55;;;;;;;0.50;0.50;;;7.20;99.90;;;;;;5077384;28;20213;-58
2023/12/14 09:36:20;;;;;;;3.30;3.00;;;7.30;99.90;;;;;;5077817;28;20173;-59
2023/12/14 09:38:47;;;;;;;0.77;0.60;;;7.30;99.90;;;;;;5077774;28;20173;-58
2023/12/14 09:41:13;;;;;;;0.70;0.70;;;7.40;99.90;;;;;;5077477;28;20187;-59
2023/12/14 09:43:38;;;;;;;0.40;0.40;;;7.50;99.90;;;;;;5077406;28;20260;-61
2023/12/14 09:46:04;;;;;;;0.53;0.53;;;7.60;99.90;;;;;;5077181;28;20602;-60
2023/12/14 09:48:31;;;;;;;1.37;0.50;;;7.60;99.90;;;;;;5078163;28;20173;-60
2023/12/14 09:50:57;;;;;;;0.50;0.50;;;7.70;99.90;;;;;;5078145;28;20408;-58
2023/12/14 09:53:23;;;;;;;0.90;0.50;;;7.70;99.90;;;;;;5079447;28;20189;-58
2023/12/14 09:55:49;;;;;;;0.50;0.40;;;7.70;99.90;;;;;;5078154;28;20687;-58
2023/12/14 09:58:14;;;;;;;0.63;0.63;;;7.60;99.90;;;;;;5078164;28;20231;-58
2023/12/14 10:00:41;;;;;;;1.23;0.60;;;7.40;99.90;;;;;;5078207;28;20283;-59
2023/12/14 10:03:28;;;;;;;0.40;0.40;;;7.50;99.90;;;;;;5077697;28;20545;-58
2023/12/14 10:05:54;;;;;;;0.65;0.65;;;7.60;99.90;;;;;;5078571;28;20173;-58
2023/12/14 10:08:21;;;;;;;0.30;0.30;;;7.70;99.90;;;;;;5078670;28;20180;-58
2023/12/14 10:10:52;;;;;;;0.50;0.50;;;7.80;99.90;;;;;;5077424;28;20207;-58
2023/12/14 10:13:18;;;;;;;0.40;0.40;;;7.90;99.90;;;;;;5076177;28;20211;-58
2023/12/14 10:15:46;;;;;;;0.40;0.40;;;8.00;99.90;;;;;;5077217;28;20201;-57
2023/12/14 10:18:34;;;;;;;0.40;0.40;;;8.00;99.90;;;;;;5078194;28;20205;-57
2023/12/14 10:21:00;;;;;;;0.80;0.80;;;7.90;99.90;;;;;;5077744;28;20173;-58
2023/12/14 10:23:27;;;;;;;0.50;0.50;;;7.90;99.90;;;;;;5077274;28;20272;-58
2023/12/14 10:25:53;;;;;;;1.20;0.90;;;7.80;99.90;;;;;;5076724;28;20184;-59
2023/12/14 10:28:19;;;;;;;0.87;0.67;;;7.80;99.90;;;;;;5078450;28;20184;-58
2023/12/14 10:30:45;;;;;;;0.53;0.40;;;7.70;99.90;;;;;;5077559;28;20177;-58
2023/12/14 10:33:11;;;;;;;0.40;0.40;;;7.70;99.90;;;;;;5077340;28;20240;-58
2023/12/14 10:35:36;;;;;;;0.40;0.40;;;7.40;99.90;;;;;;5077099;28;20205;-58
2023/12/14 10:38:05;;;;;;;0.93;0.50;;;7.30;99.90;;;;;;5076903;28;20173;-59
2023/12/14 10:40:34;;;;;;;0.55;0.55;;;7.30;99.90;;;;;;5076464;28;20231;-58
2023/12/14 10:43:00;;;;;;;0.50;0.50;;;7.40;99.90;;;;;;5076489;28;20193;-59
2023/12/14 10:45:32;;;;;;;0.95;0.60;;;7.40;99.90;;;;;;5076867;28;20169;-59
2023/12/14 10:48:00;;;;;;;0.65;0.65;;;7.40;99.90;;;;;;5076262;28;20185;-58
2023/12/14 10:50:30;;;;;;;0.52;0.52;;;7.30;99.90;;;;;;5076832;28;20177;-59
2023/12/14 10:52:58;;;;;;;1.15;0.93;;;7.20;99.90;;;;;;5076987;28;20617;-59
2023/12/14 10:55:44;;;;;;;0.70;0.50;;;7.30;99.90;;;;;;5076222;28;20641;-59
2023/12/14 10:58:11;;;;;;;0.98;0.95;;;7.40;99.90;;;;;;5076324;28;20184;-59
2023/12/14 11:00:37;;;;;;;0.60;0.50;;;7.40;99.90;;;;;;5075751;28;20669;-58
2023/12/14 11:03:06;;;;;;;0.45;0.45;;;7.40;99.90;;;;;;5076283;28;20292;-58
2023/12/14 11:05:36;;;;;;;0.73;0.73;;;7.40;99.90;;;;;;5076119;28;20183;-58
2023/12/14 11:08:09;;;;;;;0.47;0.47;;;7.30;99.90;;;;;;5077706;28;20680;-59
2023/12/14 11:10:41;;;;;;;0.40;0.40;;;7.30;99.90;;;;;;5076325;28;20760;-58
2023/12/14 11:13:10;;;;;;;0.40;0.40;;;7.10;99.90;;;;;;5075751;28;20197;-59
2023/12/14 11:15:37;;;;;;;0.40;0.40;;;7.00;99.90;;;;;;5075762;28;20198;-58
2023/12/14 11:18:11;;;;;;;0.68;0.60;;;7.00;99.90;;;;;;5075247;28;20322;-58
2023/12/14 11:20:46;;;;;;;1.15;1.05;;;7.20;99.90;;;;;;5075627;28;20165;-58
2023/12/14 11:23:35;;;;;;;0.30;0.30;;;7.30;99.90;;;;;;5075609;28;20185;-58
2023/12/14 11:26:10;;;;;;;0.65;0.60;;;7.50;99.90;;;;;;5074892;28;20371;-59
2023/12/14 11:28:38;;;;;;;0.40;0.40;;;7.50;99.90;;;;;;5075957;28;20157;-58
2023/12/14 11:31:06;;;;;;;0.80;0.80;;;7.40;99.90;;;;;;5075897;28;20264;-58
2023/12/14 11:33:35;;;;;;;0.40;0.40;;;7.50;99.90;;;;;;5071646;28;20209;-58
2023/12/14 11:36:03;;;;;;;1.00;0.95;;;7.50;99.90;;;;;;5067051;28;20205;-58
2023/12/14 11:38:30;;;;;;;0.80;0.45;;;7.50;99.90;;;;;;5067748;28;20605;-59
2023/12/14 11:40:55;;;;;;;0.57;0.57;;;7.50;99.90;;;;;;5070466;28;20664;-58
2023/12/14 11:43:21;;;;;;;0.77;0.77;;;7.60;99.90;;;;;;5066794;28;20188;-59
2023/12/14 11:45:47;;;;;;;0.83;0.60;;;7.80;99.90;;;;;;5059333;28;20174;-58
2023/12/14 11:48:13;;;;;;;0.30;0.30;;;8.00;99.90;;;;;;5056480;28;20169;-59
2023/12/14 11:50:40;;;;;;;0.50;0.50;;;8.00;99.90;;;;;;5055616;28;20262;-59
2023/12/14 11:53:07;;;;;;;0.40;0.40;;;8.10;99.90;;;;;;5056728;28;20679;-59
2023/12/14 11:55:36;;;;;;;0.40;0.40;;;8.40;99.90;;;;;;5055798;28;20197;-59
2023/12/14 11:58:04;;;;;;;0.50;0.50;;;8.60;99.90;;;;;;5056438;28;20166;-59
2023/12/14 12:00:30;;;;;;;0.50;0.50;;;8.80;99.90;;;;;;5056255;28;20180;-58
2023/12/14 12:03:13;;;;;;;0.52;0.52;;;8.90;99.90;;;;;;5055866;28;20190;-59
2023/12/14 12:05:40;;;;;;;1.98;1.27;;;9.00;99.80;;;;;;5055700;28;20261;-59
2023/12/14 12:08:06;;;;;;;1.27;1.15;;;9.00;99.90;;;;;;5055217;28;20182;-59
2023/12/14 12:10:33;;;;;;;0.50;0.40;;;9.00;99.70;;;;;;5055584;28;20663;-59
2023/12/14 12:13:12;;;;;;;0.60;0.60;;;9.00;99.70;;;;;;5055233;28;20200;-59
2023/12/14 12:15:37;;;;;;;0.98;0.98;;;9.00;99.50;;;;;;5055683;28;20213;-59
2023/12/14 12:18:08;;;;;;;1.87;1.63;;;9.00;99.90;;;;;;5055447;28;20699;-59
2023/12/14 12:20:34;;;;;;;0.85;0.60;;;9.00;99.90;;;;;;5055453;28;20166;-59
2023/12/14 12:23:01;;;;;;;0.87;0.73;;;9.00;99.80;;;;;;5056447;28;20244;-59
2023/12/14 12:25:27;;;;;;;0.40;0.40;;;8.80;99.40;;;;;;5058130;28;20492;-59
2023/12/14 12:27:54;;;;;;;0.40;0.40;;;8.60;99.90;;;;;;5069640;28;20182;-59
2023/12/14 12:30:20;;;;;;;1.83;1.20;;;8.40;99.90;;;;;;5076036;28;20185;-59
2023/12/14 12:32:46;;;;;;;0.50;0.40;;;8.20;99.90;;;;;;5075903;28;20213;-59
2023/12/14 12:35:12;;;;;;;0.40;0.40;;;8.20;99.90;;;;;;5075474;28;20201;-59
2023/12/14 12:37:37;;;;;;;0.30;0.30;;;8.30;99.90;;;;;;5075759;28;20169;-58
2023/12/14 12:40:04;;;;;;;0.40;0.40;;;8.00;99.90;;;;;;5075590;28;20404;-58
2023/12/14 12:42:29;;;;;;;0.40;0.40;;;7.90;99.90;;;;;;5075864;28;20200;-58
2023/12/14 12:44:55;;;;;;;0.40;0.40;;;7.90;99.90;;;;;;5077093;28;20170;-59
2023/12/14 12:47:21;;;;;;;1.00;1.00;;;7.80;99.90;;;;;;5075669;28;20667;-59
2023/12/14 12:49:46;;;;;;;0.47;0.47;;;7.80;99.90;;;;;;5075851;28;20165;-59
2023/12/14 12:52:12;;;;;;;0.60;0.60;;;7.80;99.90;;;;;;5075185;28;20189;-58
2023/12/14 12:54:37;;;;;;;0.93;0.93;;;8.00;99.90;;;;;;5076198;28;20272;-58